EGDM

MoD Boscombe Down Airport

Amesbury, United Kingdom
METAR EGDM 192350Z AUTO 21008KT 9999 BKN150/// 02/01 Q1009
Observed Flight Rules
Jan-19 @ 23:50 UTC (an hour ago) Visual Flight Rules
Wind Visibility Clouds
210° at 8 knots 10,000+ meters
  • Broken at 15,000' AGL
Temperatures Readings
Current 2°C / 36°F
Dewpoint 1°C / 34°F
Humidity 93%
Altimeter 29.79" Hg
Pressure 1009 hPa
Elevation 124
METAR EGDM 192350Z AUTO 21008KT 9999 BKN150/// 02/01 Q1009
Observed Flight Rules
Jan-19 @ 23:50 UTC
(an hour ago)
VFR
Wind Visibility
210° at 8 knots 10,000+ meters
Clouds
  • Broken at 15,000' AGL
Temperature Dewpoint
2°C / 36°F 1°C / 34°F
Humidity Altimeter Pressure
93% 29.79" Hg 1009 hPa